KFCS/FCS METAR and TAF weather

Enter ICAO airport designator
Station Type Date Time Source
KFCS METAR 2019/05/19 20:29 UTC NOAA

KFCS 192029Z AUTO 20011KT 10SM SCT090 SCT200 15/01 A2990 RMK AO2 WSHFT 26 SLP125 $


Station Type Date Time Source
KFCS Decoded METAR 2019/05/19 20:29 UTC NOAA

Fort Carson, CO, United States (KFCS) 38-42N 104-46W 1789M
May 19, 2019 - 04:29 PM EDT / 2019.05.19 2029 UTC
Wind: from the SSW (200 degrees) at 13 MPH (11 KT):0
Visibility: 10 mile(s):0
Sky conditions: partly cloudy
Temperature: 59 F (15 C)
Dew Point: 33 F (1 C)
Relative Humidity: 38%
Pressure (altimeter): 29.9 in. Hg (1012 hPa)
ob: KFCS 192029Z AUTO 20011KT 10SM SCT090 SCT200 15/01 A2990 RMK AO2 WSHFT 26 SLP125
cycle: 20

Station Type Date Time Source
KFCS TAF 2019/05/19 13:12 UTC NOAA

TAF TAF KFCS 191307Z 1913/2019 22009KT 9999 SCT020 QNH2997INS
BECMG 1914/1915 17012KT 9999 SCT020 SCT130 QNH2990INS
BECMG 1920/1921 18012G18KT 9999 BKN060 QNH2983INS
TEMPO 1921/2001 18015G25KT VCSH
BECMG 2001/2002 15009KT 9999 FEW100 SCT120 BKN150 QNH2983INS
BECMG 2005/2006 VRB06KT 9999 SCT180 QNH2976INS
BECMG 2016/2017 16009KT 9999 VCTS SCT050CB QNH2973INS TX15/1923Z TN02/1913Z

Example: see airport list